Time;durP1;ratioP1;P1;durP2;ratioP2;P2;SDS_P1;SDS_P2;PMS_P1;PMS_P2;Temp;Humidity;BMP_temperature;BMP_pressure;BME280_temperature;BME280_humidity;BME280_pressure;Samples;Min_cycle;Max_cycle;Signal;HPM_P1;HPM_P2
2022/04/29 00:04:32;;;;;;;59.63;55.80;;;;;;;9.95;100.00;103227.37;1860340;74;85301;-75
2022/04/29 00:10:17;;;;;;;61.23;57.23;;;;;;;9.79;100.00;103207.08;1941448;71;40350;-81
2022/04/29 00:16:03;;;;;;;59.47;55.73;;;;;;;9.68;100.00;103218.88;1826087;75;85533;-83
2022/04/29 00:21:48;;;;;;;60.80;56.83;;;;;;;9.51;100.00;103216.28;1801364;78;86566;-80
2022/04/29 00:27:33;;;;;;;58.77;55.23;;;;;;;9.24;100.00;103215.53;1809138;77;86630;-76
2022/04/29 00:33:18;;;;;;;60.87;57.03;;;;;;;9.23;100.00;103210.23;1952078;73;86488;-74
2022/04/29 00:39:03;;;;;;;59.20;55.70;;;;;;;9.35;100.00;103209.86;1836035;76;86042;-74
2022/04/29 00:44:48;;;;;;;58.57;55.13;;;;;;;9.32;100.00;103203.38;1809518;78;86202;-74
2022/04/29 00:50:32;;;;;;;57.23;53.57;;;;;;;9.22;100.00;103202.44;1806978;77;85366;-83
2022/04/29 00:56:18;;;;;;;62.73;59.03;;;;;;;8.97;100.00;103207.86;1979588;71;40220;-80
2022/04/29 01:02:04;;;;;;;59.43;56.00;;;;;;;8.85;100.00;103207.35;1833538;76;85266;-83
2022/04/29 01:07:52;;;;;;;62.33;58.30;;;;;;;8.83;100.00;103202.55;1883212;75;86031;-75
2022/04/29 01:13:37;;;;;;;62.63;58.93;;;;;;;8.72;100.00;103199.06;1887223;75;86621;-85
2022/04/29 01:19:22;;;;;;;62.73;58.73;;;;;;;8.78;100.00;103186.56;1940067;73;86135;-82
2022/04/29 01:25:08;;;;;;;63.60;59.60;;;;;;;8.46;100.00;103174.48;1987679;71;39529;-76
2022/04/29 01:30:54;;;;;;;63.47;59.20;;;;;;;8.33;100.00;103167.56;1840216;76;86162;-76
2022/04/29 01:36:40;;;;;;;65.77;61.17;;;;;;;8.32;100.00;103160.84;1898107;73;85622;-81
2022/04/29 01:42:24;;;;;;;64.57;59.83;;;;;;;8.29;100.00;103154.33;1936687;72;86552;-76
2022/04/29 01:48:08;;;;;;;65.47;60.83;;;;;;;8.12;100.00;103146.46;1978845;71;39587;-84
2022/04/29 01:53:53;;;;;;;63.80;59.33;;;;;;;8.04;100.00;103146.67;1876126;74;86391;-75
2022/04/29 01:59:37;;;;;;;64.40;59.10;;;;;;;7.91;100.00;103149.43;1877200;75;86271;-80
2022/04/29 02:05:21;;;;;;;65.30;60.70;;;;;;;7.68;100.00;103147.58;1832419;74;86050;-75
2022/04/29 02:11:05;;;;;;;66.20;61.07;;;;;;;7.78;100.00;103139.20;1982594;71;39597;-74
2022/04/29 02:16:49;;;;;;;63.80;59.23;;;;;;;7.69;100.00;103135.45;1808274;78;85934;-83
2022/04/29 02:22:33;;;;;;;64.20;58.60;;;;;;;7.42;100.00;103136.45;1860752;76;85383;-76
2022/04/29 02:28:18;;;;;;;61.90;57.50;;;;;;;7.48;100.00;103135.63;1836811;76;86643;-75
2022/04/29 02:34:03;;;;;;;61.20;56.60;;;;;;;7.34;100.00;103130.59;1840016;76;86239;-83
2022/04/29 02:39:47;;;;;;;61.67;56.80;;;;;;;7.62;100.00;103131.80;1798936;78;85318;-76
2022/04/29 02:45:33;;;;;;;60.63;55.50;;;;;;;7.31;100.00;103137.92;1808519;77;86285;-83
2022/04/29 02:51:17;;;;;;;62.43;57.63;;;;;;;7.17;100.00;103137.02;1982446;71;39580;-75
2022/04/29 02:57:01;;;;;;;60.73;55.97;;;;;;;7.14;100.00;103134.67;1785113;78;86187;-84
2022/04/29 03:02:44;;;;;;;57.47;52.80;;;;;;;7.29;100.00;103135.36;1882780;73;86484;-80
2022/04/29 03:08:28;;;;;;;61.63;57.13;;;;;;;7.27;100.00;103146.31;1808654;77;86666;-75
2022/04/29 03:14:12;;;;;;;59.87;55.20;;;;;;;7.23;100.00;103151.93;1985262;71;39485;-76
2022/04/29 03:19:57;;;;;;;58.20;53.73;;;;;;;7.19;100.00;103158.37;1826486;76;85497;-84
2022/04/29 03:25:42;;;;;;;59.17;54.77;;;;;;;7.10;100.00;103152.70;1884724;73;86450;-75
2022/04/29 03:31:26;;;;;;;61.53;56.70;;;;;;;7.22;100.00;103155.22;1914027;74;86510;-74
2022/04/29 03:37:10;;;;;;;57.13;52.73;;;;;;;7.30;100.00;103143.12;1982001;71;39688;-84
2022/04/29 03:42:56;;;;;;;59.73;55.03;;;;;;;6.99;100.00;103145.53;1836943;76;86614;-83
2022/04/29 03:54:45;;;;;;;59.80;55.10;;;;;;;7.17;100.00;103146.69;1884582;73;86329;-75
2022/04/29 04:00:31;;;;;;;59.33;54.70;;;;;;;6.99;100.00;103134.48;1865758;74;86409;-84
2022/04/29 04:12:17;;;;;;;62.60;57.60;;;;;;;6.93;100.00;103139.47;1978033;71;39546;-75
2022/04/29 04:18:02;;;;;;;60.37;55.23;;;;;;;6.90;100.00;103131.56;1814629;76;86321;-84
2022/04/29 04:23:46;;;;;;;61.77;56.93;;;;;;;6.75;100.00;103127.58;1819489;77;86581;-75
2022/04/29 04:29:32;;;;;;;59.77;55.03;;;;;;;6.98;100.00;103132.25;1850414;76;86271;-75
2022/04/29 04:35:17;;;;;;;60.90;56.10;;;;;;;6.74;100.00;103132.77;1984639;71;39568;-79
2022/04/29 04:41:01;;;;;;;63.23;58.03;;;;;;;6.79;100.00;103139.40;1842707;76;86281;-76
2022/04/29 04:46:45;;;;;;;63.03;57.57;;;;;;;6.86;100.00;103133.37;1893238;74;86242;-75
2022/04/29 04:52:30;;;;;;;61.60;56.60;;;;;;;6.80;100.00;103140.25;1868286;74;86493;-76
2022/04/29 04:58:14;;;;;;;62.67;56.97;;;;;;;6.74;100.00;103146.58;1986324;71;40362;-83
2022/04/29 05:03:57;;;;;;;62.40;57.37;;;;;;;7.03;100.00;103154.59;1838957;75;86942;-75
2022/04/29 05:09:41;;;;;;;63.10;57.87;;;;;;;6.17;100.00;103055.75;1822806;74;114206;-82
2022/04/29 05:15:27;;;;;;;62.07;56.80;;;;;;;6.84;100.00;103159.50;1907464;72;86330;-75
2022/04/29 05:21:12;;;;;;;61.10;56.17;;;;;;;6.81;100.00;103170.42;1924652;71;39387;-83
2022/04/29 05:26:54;;;;;;;60.90;55.57;;;;;;;6.74;100.00;103173.68;1833660;76;86254;-83
2022/04/29 05:32:39;;;;;;;60.83;55.83;;;;;;;6.59;100.00;103177.62;1881320;75;86338;-80
2022/04/29 05:42:14;;;;;;;61.37;56.57;;;;;;;6.69;100.00;103187.77;1916911;74;86481;-74
2022/04/29 05:44:13;;;;;;;64.77;59.20;;;;;;;6.95;100.00;103186.55;1975882;70;39548;-82
2022/04/29 05:49:58;;;;;;;60.47;55.40;;;;;;;6.76;100.00;103188.68;1834911;75;86177;-75
2022/04/29 05:55:43;;;;;;;64.07;58.47;;;;;;;7.03;100.00;103184.13;1879698;74;86328;-74
2022/04/29 06:01:27;;;;;;;62.70;57.33;;;;;;;7.38;100.00;103187.70;1868338;75;86369;-79
2022/04/29 06:07:11;;;;;;;63.50;58.80;;;;;;;7.64;100.00;103182.25;1981765;71;39555;-84
2022/04/29 06:12:56;;;;;;;66.30;61.10;;;;;;;8.18;100.00;103184.88;1972853;69;85302;-76
2022/04/29 06:18:40;;;;;;;68.23;62.73;;;;;;;8.56;100.00;103177.64;1901771;73;86095;-76
2022/04/29 06:24:24;;;;;;;66.20;60.63;;;;;;;8.66;100.00;103171.14;1932246;71;86208;-74
2022/04/29 06:30:11;;;;;;;63.63;59.10;;;;;;;8.89;100.00;103179.52;1979168;71;39510;-74
2022/04/29 06:35:55;;;;;;;65.33;60.83;;;;;;;8.94;100.00;103175.00;1825880;76;86210;-82
2022/04/29 06:41:41;;;;;;;63.10;58.83;;;;;;;9.03;100.00;103184.78;1826127;76;86663;-74
2022/04/29 06:47:26;;;;;;;66.13;61.90;;;;;;;9.17;100.00;103181.97;1927737;73;86019;-78
2022/04/29 06:53:10;;;;;;;64.87;60.63;;;;;;;9.36;100.00;103193.53;1982437;71;40293;-80
2022/04/29 06:58:53;;;;;;;63.73;59.47;;;;;;;9.42;100.00;103196.27;1820745;76;86481;-77
2022/04/29 07:04:38;;;;;;;61.30;57.50;;;;;;;9.68;100.00;103194.42;1872407;75;85274;-77
2022/04/29 07:10:22;;;;;;;63.70;59.47;;;;;;;9.82;100.00;103191.89;1915741;74;85550;-78
2022/04/29 07:16:07;;;;;;;60.57;56.37;;;;;;;10.17;100.00;103192.33;1928269;71;39653;-74
2022/04/29 07:21:51;;;;;;;57.83;54.13;;;;;;;10.31;100.00;103193.36;1877860;74;86229;-73
2022/04/29 07:27:36;;;;;;;57.33;53.67;;;;;;;10.33;100.00;103196.78;1886256;73;86714;-73
2022/04/29 07:42:05;;;;;;;47.83;45.05;;;;;;;10.92;100.00;103188.40;1894138;74;940843;-77
2022/04/29 07:44:36;;;;;;;46.47;43.50;;;;;;;11.19;100.00;103184.24;1906850;73;940900;-82
2022/04/29 07:47:07;;;;;;;45.40;42.80;;;;;;;11.02;100.00;103186.48;1894309;73;940935;-82
2022/04/29 07:49:38;;;;;;;43.70;40.57;;;;;;;11.13;100.00;103180.13;1902226;73;940969;-76
2022/04/29 07:52:10;;;;;;;45.13;42.37;;;;;;;11.42;100.00;103189.92;1885028;73;940897;-82
2022/04/29 07:54:41;;;;;;;41.07;38.87;;;;;;;11.73;100.00;103181.94;1902818;73;939055;-84
2022/04/29 08:00:26;;;;;;;36.57;34.47;;;;;;;11.89;100.00;103180.44;1915897;74;85149;-74
2022/04/29 08:06:10;;;;;;;37.33;35.07;;;;;;;11.61;100.00;103180.16;1961774;71;39594;-76
2022/04/29 08:11:56;;;;;;;33.17;31.23;;;;;;;11.80;100.00;103186.89;1837365;76;86283;-75
2022/04/29 08:17:40;;;;;;;34.50;32.50;;;;;;;11.84;100.00;103183.93;1914948;74;86356;-85
2022/04/29 08:23:34;;;;;;;37.10;34.70;;;;;;;11.78;100.00;103178.44;1925670;73;86365;-78
2022/04/29 08:29:18;;;;;;;35.10;32.80;;;;;;;11.96;100.00;103178.93;1975936;71;39412;-77
2022/04/29 08:35:12;;;;;;;31.83;29.93;;;;;;;12.23;100.00;103183.00;1928214;71;50202;-77
2022/04/29 08:41:01;;;;;;;32.37;30.27;;;;;;;12.36;100.00;103192.54;1841589;76;86185;-86
2022/04/29 08:46:48;;;;;;;29.33;27.40;;;;;;;12.11;100.00;103193.25;1914033;73;85453;-82
2022/04/29 08:52:34;;;;;;;29.80;27.73;;;;;;;12.30;100.00;103187.91;1874661;75;86627;-74
2022/04/29 08:58:40;;;;;;;30.40;28.30;;;;;;;12.28;100.00;103194.25;1878730;76;86658;-76
2022/04/29 09:04:23;;;;;;;28.77;27.10;;;;;;;12.31;100.00;103194.66;1912361;73;85286;-71
2022/04/29 09:10:10;;;;;;;28.40;26.60;;;;;;;12.27;100.00;103207.37;1981311;71;39505;-72
2022/04/29 09:15:57;;;;;;;27.63;26.00;;;;;;;12.54;100.00;103206.35;1841756;76;85938;-77
2022/04/29 09:21:49;;;;;;;25.27;23.50;;;;;;;12.72;100.00;103212.37;1809449;78;85975;-73
2022/04/29 09:27:54;;;;;;;27.37;25.67;;;;;;;12.85;100.00;103207.94;1891318;74;86168;-71
2022/04/29 09:34:06;;;;;;;28.40;26.70;;;;;;;12.82;100.00;103219.59;1807755;78;86540;-75
2022/04/29 09:39:54;;;;;;;25.67;24.23;;;;;;;12.77;100.00;103228.69;1905684;74;86568;-73
2022/04/29 09:45:39;;;;;;;27.33;25.73;;;;;;;12.82;100.00;103226.57;1883920;75;86400;-76
2022/04/29 09:51:49;;;;;;;25.47;24.07;;;;;;;12.30;100.00;103231.11;1927627;71;85539;-72
2022/04/29 09:57:49;;;;;;;25.80;24.37;;;;;;;12.22;100.00;103221.16;1881221;75;85440;-78
2022/04/29 10:03:38;;;;;;;25.63;24.10;;;;;;;12.31;100.00;103224.45;1803614;77;86741;-73
2022/04/29 10:12:29;;;;;;;26.10;24.53;;;;;;;12.41;100.00;103214.12;1930080;72;86684;-71
2022/04/29 10:15:05;;;;;;;25.07;23.70;;;;;;;12.46;100.00;103212.83;1831839;75;938918;-77
2022/04/29 10:23:13;;;;;;;24.27;23.07;;;;;;;12.59;100.00;103214.00;1840114;75;941000;-72
2022/04/29 10:25:45;;;;;;;24.83;23.40;;;;;;;12.31;100.00;103219.73;1882434;74;939233;-72
2022/04/29 10:31:33;;;;;;;25.70;24.17;;;;;;;12.37;100.00;103206.75;1865216;76;85455;-76
2022/04/29 10:37:43;;;;;;;25.03;23.70;;;;;;;12.53;100.00;103210.25;1908193;74;86427;-82
2022/04/29 10:43:29;;;;;;;24.97;23.57;;;;;;;12.56;100.00;103213.09;1862276;76;86433;-72
2022/04/29 10:49:34;;;;;;;19.20;18.20;;;;;;;12.31;100.00;103210.52;1808936;77;85873;-77
2022/04/29 10:58:31;;;;;;;18.57;17.57;;;;;;;12.32;100.00;103211.66;1932145;72;86264;-77
2022/04/29 11:04:47;;;;;;;20.13;18.80;;;;;;;12.08;100.00;103221.05;1895613;74;86367;-82
2022/04/29 11:10:58;;;;;;;18.40;17.40;;;;;;;11.73;100.00;103222.84;1841486;75;85810;-80
2022/04/29 11:16:55;;;;;;;17.93;16.93;;;;;;;12.03;100.00;103213.95;1884350;73;86387;-80
2022/04/29 11:28:44;;;;;;;18.23;17.07;;;;;;;11.91;100.00;103201.07;1891763;73;86701;-70
2022/04/29 11:34:28;;;;;;;16.70;15.90;;;;;;;12.02;100.00;103194.70;1806827;78;86207;-70
2022/04/29 11:40:13;;;;;;;16.93;16.00;;;;;;;12.36;100.00;103184.17;1987008;71;39514;-70
2022/04/29 11:49:12;;;;;;;18.00;16.90;;;;;;;11.81;100.00;103190.48;1982217;69;39548;-74
2022/04/29 11:55:00;;;;;;;16.80;16.00;;;;;;;11.71;100.00;103184.62;1882244;74;85978;-73
2022/04/29 12:00:50;;;;;;;17.00;15.90;;;;;;;11.75;100.00;103183.95;1872942;74;86289;-72
2022/04/29 12:06:57;;;;;;;14.80;13.87;;;;;;;11.97;100.00;103178.70;1884635;73;85437;-72
2022/04/29 12:12:51;;;;;;;14.90;14.00;;;;;;;12.22;100.00;103175.72;1801349;78;85602;-72
2022/04/29 12:18:45;;;;;;;13.87;13.03;;;;;;;12.19;100.00;103176.21;1895563;75;86506;-71
2022/04/29 12:24:43;;;;;;;13.80;13.00;;;;;;;12.44;100.00;103173.20;1847366;76;86371;-70
2022/04/29 12:36:31;;;;;;;14.60;13.60;;;;;;;12.25;100.00;103176.09;1875313;75;86573;-71
2022/04/29 12:42:27;;;;;;;14.17;13.13;;;;;;;11.96;100.00;103186.75;1904413;72;85224;-68
2022/04/29 12:48:16;;;;;;;13.20;12.60;;;;;;;12.13;100.00;103171.05;1975950;71;39635;-71
2022/04/29 12:54:00;;;;;;;14.27;13.27;;;;;;;11.95;100.00;103180.00;1961055;71;85298;-72
2022/04/29 12:59:45;;;;;;;13.07;12.27;;;;;;;12.25;100.00;103179.41;1873183;75;86614;-66
2022/04/29 13:05:34;;;;;;;13.40;12.73;;;;;;;12.17;100.00;103168.63;1863284;75;86504;-67
2022/04/29 13:11:19;;;;;;;14.83;13.63;;;;;;;12.23;100.00;103164.89;1872644;73;86171;-73
2022/04/29 13:17:04;;;;;;;13.90;13.20;;;;;;;12.26;100.00;103156.04;1809399;78;86105;-68
2022/04/29 13:22:52;;;;;;;15.00;14.00;;;;;;;12.18;100.00;103163.36;1882835;74;86342;-68
2022/04/29 13:28:38;;;;;;;14.80;13.90;;;;;;;12.01;100.00;103160.96;1871814;76;86326;-74
2022/04/29 13:34:23;;;;;;;14.53;13.53;;;;;;;12.06;100.00;103154.14;1911286;74;86297;-68
2022/04/29 13:40:10;;;;;;;14.20;13.30;;;;;;;12.12;100.00;103151.77;1984108;71;39687;-71
2022/04/29 13:45:59;;;;;;;15.00;13.83;;;;;;;12.25;100.00;103145.97;1835647;76;86533;-71
2022/04/29 13:51:43;;;;;;;14.53;13.63;;;;;;;12.24;100.00;103142.33;1892570;74;86461;-73
2022/04/29 13:57:27;;;;;;;15.10;14.30;;;;;;;12.14;100.00;103135.13;1876803;76;85364;-71
2022/04/29 14:03:11;;;;;;;15.10;14.13;;;;;;;11.93;100.00;103134.84;1974523;71;39556;-71
2022/04/29 14:08:55;;;;;;;14.20;13.40;;;;;;;11.94;100.00;103134.59;1835927;76;86751;-70
2022/04/29 14:14:40;;;;;;;14.20;13.43;;;;;;;11.93;100.00;103132.06;1832221;77;86568;-71
2022/04/29 14:20:25;;;;;;;12.93;12.10;;;;;;;11.87;100.00;103131.06;1910784;72;86644;-69
2022/04/29 14:26:09;;;;;;;13.20;12.60;;;;;;;12.31;100.00;103125.52;1987059;71;39596;-69
2022/04/29 14:31:53;;;;;;;12.90;12.10;;;;;;;12.21;100.00;103119.67;1842973;76;86407;-70
2022/04/29 14:37:38;;;;;;;12.63;11.90;;;;;;;12.46;100.00;103113.86;1867890;75;86014;-71
2022/04/29 14:43:24;;;;;;;12.60;11.90;;;;;;;12.87;100.00;103103.10;1915680;74;86701;-71
2022/04/29 14:49:08;;;;;;;13.03;12.33;;;;;;;12.86;100.00;103096.67;1983790;71;39457;-69
2022/04/29 14:54:52;;;;;;;12.13;11.50;;;;;;;12.82;100.00;103103.84;1838600;76;86506;-71
2022/04/29 15:00:36;;;;;;;13.33;12.63;;;;;;;12.67;100.00;103100.15;1872520;75;86194;-70
2022/04/29 15:06:23;;;;;;;12.97;12.27;;;;;;;12.66;100.00;103103.20;1921371;72;85963;-71
2022/04/29 15:18:16;;;;;;;12.40;11.70;;;;;;;12.77;100.00;103103.17;1985768;71;39508;-69
2022/04/29 15:23:59;;;;;;;13.30;12.50;;;;;;;12.72;100.00;103102.20;1892329;74;86095;-70
2022/04/29 15:32:58;;;;;;;12.03;11.53;;;;;;;12.82;100.00;103113.60;1841536;75;86101;-72
2022/04/29 15:38:45;;;;;;;13.20;12.33;;;;;;;12.70;100.00;103115.02;1870062;75;86119;-70
2022/04/29 15:44:32;;;;;;;13.20;12.50;;;;;;;13.07;100.00;103107.72;1810015;77;85409;-67
2022/04/29 15:50:16;;;;;;;13.10;12.30;;;;;;;12.89;100.00;103105.94;1977999;71;39586;-72
2022/04/29 15:56:01;;;;;;;13.13;12.37;;;;;;;13.03;100.00;103103.18;1846309;76;84875;-73
2022/04/29 16:01:46;;;;;;;13.03;12.23;;;;;;;13.08;100.00;103104.69;1885620;73;85791;-69
2022/04/29 16:07:32;;;;;;;12.30;11.70;;;;;;;12.72;100.00;103104.99;1807723;77;86766;-73
2022/04/29 16:13:17;;;;;;;13.10;12.40;;;;;;;12.86;100.00;103086.91;1977872;71;39621;-70
2022/04/29 16:31:06;;;;;;;13.23;12.43;;;;;;;12.93;100.00;103082.03;1979041;70;39642;-70
2022/04/29 16:36:55;;;;;;;13.20;12.40;;;;;;;12.50;100.00;103096.41;1885954;74;86376;-72
2022/04/29 16:42:42;;;;;;;12.77;11.90;;;;;;;12.69;100.00;103092.40;1882342;75;86415;-73
2022/04/29 16:48:31;;;;;;;13.40;12.60;;;;;;;12.71;100.00;103092.13;1801639;77;86298;-74
2022/04/29 16:54:17;;;;;;;13.37;12.67;;;;;;;12.60;100.00;103086.05;1973126;71;39526;-70
2022/04/29 17:00:00;;;;;;;13.83;13.03;;;;;;;12.44;100.00;103095.16;1828742;76;86125;-73
2022/04/29 17:05:46;;;;;;;13.27;12.50;;;;;;;12.34;100.00;103092.97;1915429;74;85320;-79
2022/04/29 17:11:35;;;;;;;13.27;12.50;;;;;;;12.38;100.00;103087.75;1843223;76;86504;-71
2022/04/29 17:17:21;;;;;;;13.57;12.73;;;;;;;12.28;100.00;103092.53;1932543;73;86636;-76
2022/04/29 17:23:06;;;;;;;12.70;11.93;;;;;;;12.21;100.00;103087.09;1984164;71;39394;-75
2022/04/29 17:28:51;;;;;;;12.73;11.83;;;;;;;12.26;100.00;103089.16;1882894;75;86254;-69
2022/04/29 17:34:34;;;;;;;12.27;11.63;;;;;;;12.18;100.00;103079.23;1864410;75;86305;-75
2022/04/29 17:46:23;;;;;;;12.97;12.17;;;;;;;12.14;100.00;103077.16;1903278;73;86318;-69
2022/04/29 17:52:09;;;;;;;13.10;12.33;;;;;;;12.10;100.00;103078.73;1987169;71;39547;-77
2022/04/29 17:57:54;;;;;;;12.73;12.13;;;;;;;11.94;100.00;103077.48;1831149;76;86328;-71
2022/04/29 18:03:38;;;;;;;13.33;12.53;;;;;;;11.73;100.00;103085.02;1887531;73;85832;-75
2022/04/29 18:09:28;;;;;;;12.83;12.13;;;;;;;11.74;100.00;103091.75;1918482;73;86591;-70
2022/04/29 18:15:13;;;;;;;13.30;12.50;;;;;;;11.81;100.00;103094.41;1981351;71;39678;-75
2022/04/29 18:20:57;;;;;;;12.47;11.77;;;;;;;11.74;100.00;103098.70;1837571;76;86315;-73
2022/04/29 18:26:41;;;;;;;12.60;11.70;;;;;;;11.57;100.00;103106.55;1885138;74;86222;-73
2022/04/29 18:32:26;;;;;;;12.87;12.10;;;;;;;11.60;100.00;103106.06;1950001;72;86472;-70
2022/04/29 18:38:10;;;;;;;12.03;11.47;;;;;;;11.48;100.00;103124.13;1981149;71;39653;-78
2022/04/29 18:43:59;;;;;;;12.27;11.57;;;;;;;11.51;100.00;103123.65;1851533;76;86405;-69
2022/04/29 18:49:43;;;;;;;12.17;11.53;;;;;;;11.56;100.00;103120.16;1878365;74;86308;-79
2022/04/29 18:55:27;;;;;;;12.93;12.13;;;;;;;11.39;100.00;103120.83;1883200;75;86612;-78
2022/04/29 19:01:10;;;;;;;13.20;12.40;;;;;;;11.55;100.00;103131.83;1982312;71;39588;-76
2022/04/29 19:06:57;;;;;;;12.03;11.53;;;;;;;11.42;100.00;103131.48;1848840;76;85993;-77
2022/04/29 19:12:41;;;;;;;12.40;11.80;;;;;;;11.52;100.00;103135.63;1878748;74;85357;-70
2022/04/29 19:18:26;;;;;;;12.63;11.83;;;;;;;11.39;100.00;103131.10;1924989;73;85539;-68
2022/04/29 19:24:11;;;;;;;11.90;11.40;;;;;;;11.08;100.00;103129.94;1985481;71;39636;-66
2022/04/29 19:29:55;;;;;;;12.87;12.07;;;;;;;11.03;100.00;103138.13;1848880;76;86244;-70
2022/04/29 19:35:40;;;;;;;12.47;11.87;;;;;;;11.01;100.00;103142.52;1892660;74;86045;-69
2022/04/29 19:41:24;;;;;;;12.40;11.90;;;;;;;10.73;100.00;103136.66;1908899;73;86141;-72
2022/04/29 19:47:09;;;;;;;13.00;12.23;;;;;;;10.60;100.00;103141.81;1986318;71;39620;-69
2022/04/29 19:52:54;;;;;;;14.80;13.80;;;;;;;10.43;100.00;103151.28;1829912;76;86379;-70
2022/04/29 20:04:42;;;;;;;17.03;15.70;;;;;;;9.73;100.00;103155.22;1893033;73;86702;-68
2022/04/29 20:10:27;;;;;;;16.17;15.37;;;;;;;9.79;100.00;103150.72;1904985;74;85894;-69
2022/04/29 20:16:12;;;;;;;16.00;15.10;;;;;;;9.61;100.00;103144.52;1972569;70;39510;-67
2022/04/29 20:21:55;;;;;;;15.97;15.17;;;;;;;9.69;100.00;103151.73;1841391;76;86713;-67
2022/04/29 20:27:41;;;;;;;18.23;17.23;;;;;;;9.72;100.00;103152.13;1836846;76;86623;-71
2022/04/29 20:33:29;;;;;;;19.77;18.57;;;;;;;9.50;100.00;103162.72;1807167;76;85378;-73
2022/04/29 20:48:07;;;;;;;20.17;19.07;;;;;;;9.24;100.00;103171.72;1987636;71;39741;-72
2022/04/29 20:53:52;;;;;;;19.30;18.30;;;;;;;9.27;100.00;103167.97;1909790;74;86099;-69
2022/04/29 20:59:35;;;;;;;20.80;19.70;;;;;;;9.35;100.00;103177.95;1869545;75;86580;-72
2022/04/29 21:05:20;;;;;;;24.83;23.63;;;;;;;9.52;100.00;103170.83;1922604;73;85454;-67
2022/04/29 21:11:04;;;;;;;23.77;22.33;;;;;;;9.26;100.00;103166.27;1803501;78;86451;-69
2022/04/29 21:16:48;;;;;;;21.10;19.97;;;;;;;9.13;100.00;103164.39;1796555;78;86581;-74
2022/04/29 21:22:34;;;;;;;24.67;23.17;;;;;;;8.95;100.00;103167.54;1871420;76;86373;-73
2022/04/29 21:28:18;;;;;;;26.17;24.67;;;;;;;8.68;100.00;103172.32;1841792;76;86686;-68
2022/04/29 21:34:03;;;;;;;27.93;26.20;;;;;;;8.58;100.00;103174.67;1985583;72;86519;-68
2022/04/29 21:39:47;;;;;;;32.40;30.40;;;;;;;8.48;100.00;103180.64;1809281;78;86087;-67
2022/04/29 21:45:31;;;;;;;33.17;31.10;;;;;;;8.19;100.00;103180.52;1874044;75;86393;-74
2022/04/29 21:51:16;;;;;;;38.23;35.87;;;;;;;7.89;100.00;103179.74;1983040;71;39587;-68
2022/04/29 21:57:00;;;;;;;37.40;35.10;;;;;;;7.92;100.00;103191.23;1789798;78;86520;-74
2022/04/29 22:02:44;;;;;;;39.77;37.30;;;;;;;8.02;100.00;103197.23;1870005;75;86148;-68
2022/04/29 22:08:28;;;;;;;44.43;41.83;;;;;;;7.60;100.00;103200.33;1804351;77;86582;-73
2022/04/29 22:14:14;;;;;;;46.87;44.17;;;;;;;7.70;100.00;103198.85;1942851;70;39703;-70
2022/04/29 22:19:58;;;;;;;50.53;47.53;;;;;;;7.56;100.00;103197.66;1848259;76;85529;-68
2022/04/29 22:25:42;;;;;;;53.87;50.57;;;;;;;7.41;100.00;103208.02;1914707;74;86034;-74
2022/04/29 22:31:26;;;;;;;53.73;50.63;;;;;;;7.28;100.00;103200.52;1871523;73;86128;-73
2022/04/29 22:37:10;;;;;;;55.83;52.53;;;;;;;7.25;100.00;103192.12;1978729;71;39698;-73
2022/04/29 22:42:54;;;;;;;58.47;54.77;;;;;;;7.11;100.00;103204.16;1851332;76;86040;-74
2022/04/29 22:48:40;;;;;;;60.43;56.87;;;;;;;6.99;100.00;103196.13;1884297;74;86470;-74
2022/04/29 22:54:25;;;;;;;59.20;55.70;;;;;;;7.37;100.00;103194.28;1915783;73;86387;-69
2022/04/29 23:00:11;;;;;;;61.50;57.63;;;;;;;6.80;100.00;103194.12;1979463;71;39650;-73
2022/04/29 23:05:55;;;;;;;60.60;56.70;;;;;;;6.58;100.00;103192.48;1831316;76;86858;-72
2022/04/29 23:11:40;;;;;;;60.97;56.93;;;;;;;6.60;100.00;103194.49;1846214;75;86501;-74
2022/04/29 23:23:45;;;;;;;63.33;59.00;;;;;;;6.61;100.00;103204.50;1882379;74;86103;-68
2022/04/29 23:29:30;;;;;;;63.47;59.23;;;;;;;6.45;100.00;103191.00;1873067;75;86260;-71
2022/04/29 23:35:14;;;;;;;62.80;58.50;;;;;;;6.03;100.00;103199.67;1984612;71;39673;-68
2022/04/29 23:40:59;;;;;;;64.43;59.97;;;;;;;5.90;100.00;103202.30;1840061;76;86450;-74
2022/04/29 23:46:43;;;;;;;63.40;59.07;;;;;;;5.85;100.00;103208.90;1885084;74;86687;-68
2022/04/29 23:52:27;;;;;;;64.37;59.80;;;;;;;5.97;100.00;103199.59;1874406;75;86629;-74
2022/04/29 23:58:12;;;;;;;62.50;58.20;;;;;;;6.01;100.00;103205.05;1976159;71;39606;-74
